METAR Data
IDs: Format: Raw Decoded Include TAF

Data at: 2220 UTC 10 May 2021

KMTJ 102153Z AUTO 32013KT 10SM BKN050 OVC065 12/01 A3000 RMK AO2 SLP118 T01170011
KMTJ 102053Z AUTO 04009KT 10SM OVC050 12/01 A3000 RMK AO2 SLP116 T01220006 56010
KMTJ 101953Z AUTO 32009G15KT 10SM FEW075 SCT100 13/00 A3001 RMK AO2 SLP114 T01280000
KMTJ 101853Z AUTO 35008G17KT 320V040 10SM SCT060 SCT085 12/01 A3002 RMK AO2 SLP117 T01220006
KMTJ 101753Z AUTO VRB06KT 10SM FEW043 BKN065 12/01 A3004 RMK AO2 SLP122 T01220006 10122 20061 58002
KMTJ 101653Z AUTO 32007KT 280V360 10SM FEW060 BKN100 10/02 A3005 RMK AO2 SLP128 T01000017
KMTJ 101553Z AUTO 33009KT 10SM OVC050 08/01 A3005 RMK AO2 SLP132 T00830011
KMTJ 101453Z AUTO 35007KT 10SM OVC045 08/01 A3004 RMK AO2 SLP129 T00830011 51014
KMTJ 101353Z AUTO 32009KT 10SM BKN044 BKN100 08/01 A3004 RMK AO2 SLP124 T00780006
KMTJ 101253Z AUTO 32005KT 10SM SCT110 06/01 A3002 RMK AO2 SLP121 T00610006
KMTJ 101153Z AUTO 27004KT 10SM FEW120 07/01 A2999 RMK AO2 SLP109 T00670006 10133 20067 53004
KMTJ 101053Z AUTO 28010KT 10SM SCT110 07/01 A2998 RMK AO2 SLP106 T00670011
KMTJ 100953Z AUTO 06006KT 10SM SCT095 08/M01 A2997 RMK AO2 SLP100 T00831006
KMTJ 100853Z AUTO 08016G27KT 10SM BKN100 OVC110 09/00 A2998 RMK AO2 PK WND 11028/0842 SLP101 T00890000 58000
KMTJ 100753Z AUTO 10011KT 10SM BKN120 11/M04 A3000 RMK AO2 SLP106 T01061039
KMTJ 100653Z AUTO 05010KT 10SM OVC090 12/M06 A3000 RMK AO2 SLP106 T01221056 401670017
KMTJ 100553Z AUTO 19007KT 10SM OVC100 12/M06 A2998 RMK AO2 SLP101 T01221061 10161 20122 50006
KMTJ 100453Z AUTO 33005KT 10SM OVC100 13/M08 A2999 RMK AO2 SLP103 T01281078
KMTJ 100353Z AUTO 36006KT 10SM OVC110 14/M08 A2997 RMK AO2 SLP097 T01391083
KMTJ 100253Z AUTO 34003KT 10SM OVC110 14/M07 A2996 RMK AO2 SLP096 T01391072 53002
KMTJ 100153Z AUTO 03004KT 10SM FEW120 15/M08 A2994 RMK AO2 SLP094 T01501083
KMTJ 100053Z AUTO 04004KT 10SM CLR 16/M10 A2995 RMK AO2 SLP101 T01611100
KMTJ 092353Z AUTO 03007KT 10SM CLR 16/M09 A2995 RMK AO2 SLP103 T01611094 10167 20128 58009
KMTJ 092253Z AUTO 34007KT 10SM BKN110 15/M09 A2998 RMK AO2 SLP111 T01501094
KMTJ 092153Z AUTO 32010KT 10SM SCT120 16/M11 A2998 RMK AO2 SLP109 T01561106
KMTJ 092053Z AUTO 10SM SCT120 16/M11 A2999 RMK AO2 SLP111 T01611106 56020
KMTJ 091953Z AUTO 10SM CLR 16/M11 A3000 RMK AO2 SLP112 T01611111
KMTJ 091853Z AUTO VRB03KT 10SM CLR 14/M11 A3003 RMK AO2 SLP127 T01441111
KMTJ 091753Z AUTO 35007KT 10SM CLR 13/M12 A3006 RMK AO2 SLP137 T01281117 10139 20017 56008
KMTJ 091653Z AUTO 01005KT 10SM CLR 13/M11 A3006 RMK AO2 SLP133 T01281106
KMTJ 091553Z AUTO 00000KT 10SM CLR 11/M12 A3007 RMK AO2 SLP132 T01061122
KMTJ 091453Z AUTO 00000KT 10SM CLR 10/M12 A3009 RMK AO2 SLP136 T01001122 51008
KMTJ 091353Z AUTO 15008KT 10SM CLR 07/M09 A3009 RMK AO2 SLP139 T00671094
KMTJ 091253Z AUTO 14006KT 10SM CLR 03/M08 A3008 RMK AO2 SLP140 T00281078
KMTJ 091153Z AUTO 13005KT 10SM CLR 03/M08 A3006 RMK AO2 SLP131 T00281078 10100 20028 53010
KMTJ 091053Z AUTO 16008KT 10SM CLR 04/M08 A3003 RMK AO2 SLP118 T00391078